Terminal Aerodrome Forecast
Issued by NWS Shreveport, LA

Home | Current Version | Previous Version | Text Only | Print | Product List | Glossary On
Versions: 1 2 3 4 5 6 7 8 9 10 11 12
000
FTUS44 KSHV 121100
TAFTYR
TAF
KTYR 121134Z 1212/1312 20005KT P6SM SKC
     FM121700 18006KT P6SM FEW050
     FM130100 14004KT P6SM SCT250
     FM130600 16003KT P6SM FEW250=

USA.gov is the U.S. government's official web portal to all federal, state and local government web resources and services.